createdAt,value
2024-03-28T00:03:07.099Z,84
2024-03-28T00:15:06.618Z,84
2024-03-28T00:27:06.582Z,84.5
2024-03-28T00:39:06.710Z,85
2024-03-28T00:51:07.074Z,85
2024-03-28T01:03:08.039Z,84
2024-03-28T01:15:08.247Z,81.5
2024-03-28T01:27:08.415Z,80
2024-03-28T01:39:06.914Z,79
2024-03-28T01:51:06.635Z,78.5
2024-03-28T02:03:06.838Z,78
2024-03-28T02:15:06.764Z,78.5
2024-03-28T02:27:06.972Z,80.5
2024-03-28T02:39:06.670Z,84.5
2024-03-28T02:51:07.219Z,84.5
2024-03-28T03:03:06.855Z,83
2024-03-28T03:15:06.772Z,85
2024-03-28T03:27:06.915Z,89.5
2024-03-28T03:39:06.862Z,93.5
2024-03-28T03:51:07.444Z,94.5
2024-03-28T04:03:06.859Z,95
2024-03-28T04:15:06.987Z,95
2024-03-28T04:27:07.300Z,95.5
2024-03-28T04:39:07.331Z,96.5
2024-03-28T04:51:06.841Z,96.5
2024-03-28T05:03:07.363Z,97
2024-03-28T05:15:07.775Z,97
2024-03-28T05:27:07.134Z,97
2024-03-28T05:39:07.510Z,97
2024-03-28T05:51:07.064Z,97
2024-03-28T06:03:07.763Z,96.5
2024-03-28T06:15:06.920Z,96.5
2024-03-28T06:27:07.350Z,96.5
2024-03-28T06:39:07.086Z,96
2024-03-28T06:51:07.218Z,95
2024-03-28T07:03:07.628Z,94
2024-03-28T07:15:07.400Z,93
2024-03-28T07:27:07.324Z,92
2024-03-28T07:39:07.489Z,89
2024-03-28T07:51:07.036Z,86.5
2024-03-28T08:03:07.599Z,78
2024-03-28T08:15:07.114Z,63
2024-03-28T08:27:07.153Z,54.5
2024-03-28T08:39:07.105Z,50
2024-03-28T08:51:07.411Z,51.5
2024-03-28T09:03:07.388Z,53.5
2024-03-28T09:15:07.923Z,49
2024-03-28T09:27:07.521Z,49.5
2024-03-28T09:39:07.263Z,46.5
2024-03-28T09:51:07.388Z,46
2024-03-28T10:03:07.954Z,50
2024-03-28T10:15:07.531Z,61.5
2024-03-28T10:27:07.255Z,64
2024-03-28T10:39:07.698Z,63.5
2024-03-28T10:51:07.405Z,63.5
2024-03-28T11:03:07.936Z,62
2024-03-28T11:15:07.533Z,58.5
2024-03-28T11:27:07.432Z,59.5
2024-03-28T11:39:07.648Z,60
2024-03-28T11:51:07.372Z,59.5
2024-03-28T12:03:07.307Z,60.5
2024-03-28T12:15:08.504Z,60
2024-03-28T12:27:07.636Z,57.5
2024-03-28T12:39:07.604Z,58
2024-03-28T12:51:07.390Z,58.5
2024-03-28T13:03:07.487Z,57
2024-03-28T13:15:07.753Z,56.5
2024-03-28T13:39:07.441Z,61
2024-03-28T13:51:07.611Z,62
2024-03-28T14:03:08.373Z,79
2024-03-28T14:15:07.972Z,81.5
2024-03-28T14:27:07.971Z,83
2024-03-28T14:39:07.634Z,83.5
2024-03-28T14:51:07.417Z,81.5
2024-03-28T15:03:07.773Z,80.5
2024-03-28T15:15:07.984Z,80.5
2024-03-28T15:27:07.468Z,79
2024-03-28T15:39:08.009Z,79.5
2024-03-28T15:51:07.616Z,79.5
2024-03-28T16:03:07.655Z,81
2024-03-28T16:15:07.994Z,82
2024-03-28T16:27:07.737Z,84.5
2024-03-28T16:39:07.842Z,88.5
2024-03-28T16:51:08.676Z,89
2024-03-28T17:03:07.970Z,88
2024-03-28T17:15:08.666Z,87
2024-03-28T17:27:07.867Z,86.5
2024-03-28T17:39:07.841Z,86.5
2024-03-28T17:51:07.762Z,87.5
2024-03-28T18:03:07.680Z,88
2024-03-28T18:15:08.262Z,88.5
2024-03-28T18:27:09.752Z,89
2024-03-28T18:39:07.722Z,89
2024-03-28T18:51:08.175Z,89
2024-03-28T19:03:08.214Z,89.5
2024-03-28T19:15:08.174Z,90
2024-03-28T19:27:07.901Z,90
2024-03-28T19:39:10.515Z,89
2024-03-28T19:51:08.008Z,86.5
2024-03-28T20:03:07.763Z,84.5
2024-03-28T20:15:07.921Z,84
2024-03-28T20:27:08.070Z,83.5
2024-03-28T20:39:08.044Z,83.5
2024-03-28T20:51:08.322Z,83
2024-03-28T21:03:07.997Z,83.5
2024-03-28T21:15:08.576Z,84.5
2024-03-28T21:27:07.835Z,85.5
2024-03-28T21:39:08.240Z,88
2024-03-28T21:51:08.176Z,88.5
2024-03-28T22:03:07.958Z,88.5
2024-03-28T22:15:07.895Z,88.5
2024-03-28T22:27:08.150Z,88.5
2024-03-28T22:39:08.429Z,88.5
2024-03-28T22:51:07.974Z,88.5
2024-03-28T23:03:08.346Z,89
2024-03-28T23:15:08.077Z,88.5
2024-03-28T23:27:08.085Z,87.5
2024-03-28T23:39:08.033Z,86.5
2024-03-28T23:51:08.128Z,86.5
